Training Ship Golden Bear — NMRY — position and weather

sailwx.info

Track history (hours):
 
Tides and Currents Weather Stations Pressure Air Temp Water Temp Dewpoint Dewpoint Depression Visibility Wind Speed Wind Dir Waves Ship Positions

Training Ship Golden Bear (United States)

Training ship for California Maritime Academy. Ex USNS Maury T-AGS-39. Sister ship of training ship "State of Maine". See also http://www.csum.edu/MarinePrograms/tsgb.asp.

Ship's website: http://cma-virtualftv.csum.edu/wordpress/

Last reported at 2015-Jun-29 03:05 UTC. Time now 2015-Jul-02 00:57 UTC.
Position N 40°42' W 068°56'.

Type: Ship. MMSI: 367978000.

Date/timePositionNaut miles runAvg speedWind from/ knotsBaromVisibWave heightAir tempDewpointWater temp
2015-Jun-29 03:05N 40°42' W 068°56'1116.1
2015-Jun-29 02:23N 40°51' W 069°04'1213.6
2015-Jun-29 01:31N 41°02' W 069°11'1010.5
2015-Jun-29 00:33N 41°11' W 069°17'10 9.9
2015-Jun-28 23:33N 41°20' W 069°23'9 9.3
2015-Jun-28 22:33N 41°28' W 069°29'10 9.6
2015-Jun-28 21:33N 41°37' W 069°35'1110.0
2015-Jun-28 20:30N 41°46' W 069°41'51 8.6
2015-Jun-28 14:33N 42°19' W 070°34'1010.0
2015-Jun-28 13:33N 42°22' W 070°47'11 0.5
2015-Jun-27 15:08N 42°21' W 071°02'0 0.0
2015-Jun-27 13:23N 42°21' W 071°02'0 0.0
2015-Jun-27 12:26N 42°21' W 071°02'0 0.0
2015-Jun-27 04:32N 42°21' W 071°02'0 0.0
2015-Jun-27 03:32N 42°21' W 071°02'0 0.0
2015-Jun-25 09:13N 42°21' W 071°02'0 0.0
2015-Jun-25 08:32N 42°21' W 071°02'0 0.0
2015-Jun-24 05:10N 42°21' W 071°02'  
Track history (hours):
 
Tides and Currents Weather Stations Pressure Air Temp Water Temp Dewpoint Dewpoint Depression Visibility Wind Speed Wind Dir Waves Ship Positions

Training Ship Golden Bear (United States)

Training ship for California Maritime Academy. Ex USNS Maury T-AGS-39. Sister ship of training ship "State of Maine". See also http://www.csum.edu/MarinePrograms/tsgb.asp.

Ship's website: http://cma-virtualftv.csum.edu/wordpress/

Last reported at 2015-Jun-29 03:05 UTC. Time now 2015-Jul-02 00:57 UTC.
Position N 40°42' W 068°56'.

Type: Ship. MMSI: 367978000.

Date/timePositionNaut miles runAvg speedWind from/ knotsBaromVisibWave heightAir tempDewpointWater temp
2015-Jun-29 03:05N 40°42' W 068°56'1116.1
2015-Jun-29 02:23N 40°51' W 069°04'1213.6
2015-Jun-29 01:31N 41°02' W 069°11'1010.5
2015-Jun-29 00:33N 41°11' W 069°17'10 9.9
2015-Jun-28 23:33N 41°20' W 069°23'9 9.3
2015-Jun-28 22:33N 41°28' W 069°29'10 9.6
2015-Jun-28 21:33N 41°37' W 069°35'1110.0
2015-Jun-28 20:30N 41°46' W 069°41'51 8.6
2015-Jun-28 14:33N 42°19' W 070°34'1010.0
2015-Jun-28 13:33N 42°22' W 070°47'11 0.5
2015-Jun-27 15:08N 42°21' W 071°02'0 0.0
2015-Jun-27 13:23N 42°21' W 071°02'0 0.0
2015-Jun-27 12:26N 42°21' W 071°02'0 0.0
2015-Jun-27 04:32N 42°21' W 071°02'0 0.0
2015-Jun-27 03:32N 42°21' W 071°02'0 0.0
2015-Jun-25 09:13N 42°21' W 071°02'0 0.0
2015-Jun-25 08:32N 42°21' W 071°02'0 0.0
2015-Jun-24 05:10N 42°21' W 071°02'  

Dump ship's entire track history